TimeMDT,TemperatureF,Dew PointF,Humidity,Sea Level PressureIn,VisibilityMPH,Wind Direction,Wind SpeedMPH,Gust SpeedMPH,PrecipitationIn,Events,Conditions,WindDirDegrees,DateUTC
12:15 AM,44.6,42.8,93,29.97,10.0,SE,5.8,-,N/A,,Mostly Cloudy,140,2013-05-22 06:15:00
12:35 AM,46.4,42.8,87,29.97,10.0,South,5.8,-,N/A,,Overcast,170,2013-05-22 06:35:00
12:55 AM,46.4,42.8,87,29.97,10.0,South,6.9,-,N/A,,Mostly Cloudy,170,2013-05-22 06:55:00
1:15 AM,46.4,42.8,87,29.97,10.0,SW,3.5,-,N/A,,Overcast,230,2013-05-22 07:15:00
1:35 AM,46.4,42.8,87,29.97,10.0,SE,3.5,-,N/A,,Overcast,130,2013-05-22 07:35:00
1:55 AM,44.6,42.8,93,29.97,10.0,Calm,Calm,-,N/A,,Overcast,0,2013-05-22 07:55:00
2:15 AM,44.6,42.8,93,29.98,10.0,NNW,4.6,-,N/A,,Overcast,330,2013-05-22 08:15:00
2:35 AM,46.4,42.8,87,29.98,10.0,Calm,Calm,-,N/A,,Overcast,0,2013-05-22 08:35:00
2:55 AM,46.4,42.8,87,29.97,10.0,SE,4.6,-,N/A,,Mostly Cloudy,130,2013-05-22 08:55:00
3:15 AM,46.4,42.8,87,29.97,10.0,SE,5.8,-,N/A,,Mostly Cloudy,140,2013-05-22 09:15:00
3:35 AM,46.4,42.8,87,29.97,10.0,SE,5.8,-,N/A,,Overcast,140,2013-05-22 09:35:00
3:55 AM,46.4,42.8,87,29.96,10.0,Calm,Calm,-,N/A,,Overcast,0,2013-05-22 09:55:00
4:15 AM,46.4,42.8,87,29.96,10.0,SE,6.9,-,N/A,,Mostly Cloudy,140,2013-05-22 10:15:00
4:35 AM,44.6,42.8,93,29.96,10.0,SE,5.8,-,N/A,,Overcast,140,2013-05-22 10:35:00
4:55 AM,44.6,42.8,93,29.96,10.0,ESE,4.6,-,N/A,,Overcast,120,2013-05-22 10:55:00
5:15 AM,46.4,42.8,87,29.96,10.0,SE,4.6,-,N/A,,Overcast,140,2013-05-22 11:15:00
5:35 AM,44.6,42.8,93,29.96,10.0,SSE,3.5,-,N/A,,Overcast,160,2013-05-22 11:35:00
5:55 AM,46.4,44.6,93,29.96,10.0,South,5.8,-,N/A,,Overcast,190,2013-05-22 11:55:00
6:15 AM,46.4,44.6,93,29.95,7.0,South,6.9,-,0.01,Rain,Light Rain,170,2013-05-22 12:15:00
6:35 AM,46.4,42.8,87,29.94,10.0,SSE,8.1,-,0.01,Rain,Light Rain,160,2013-05-22 12:35:00
6:55 AM,46.4,42.8,87,29.94,10.0,SSE,6.9,-,0.01,,Overcast,150,2013-05-22 12:55:00
7:15 AM,46.4,44.6,93,29.93,7.0,SSE,3.5,-,N/A,Rain,Rain,160,2013-05-22 13:15:00
7:35 AM,46.4,44.6,93,29.93,10.0,Calm,Calm,-,0.01,Rain,Light Rain,0,2013-05-22 13:35:00
7:55 AM,46.4,44.6,93,29.93,3.0,Calm,Calm,-,0.03,Rain,Rain,0,2013-05-22 13:55:00
8:15 AM,46.4,44.6,93,29.94,4.0,Calm,Calm,-,0.04,Rain,Light Rain,0,2013-05-22 14:15:00
8:35 AM,46.4,44.6,93,29.93,5.0,SSE,5.8,-,0.04,,Drizzle,150,2013-05-22 14:35:00
8:55 AM,46.4,44.6,93,29.93,4.0,SSE,4.6,-,0.06,Rain,Light Rain,150,2013-05-22 14:55:00
9:15 AM,48.2,46.4,93,29.93,3.0,SE,4.6,-,0.04,Rain,Light Rain,140,2013-05-22 15:15:00
9:35 AM,48.2,46.4,93,29.93,5.0,SSE,6.9,-,0.05,,Light Drizzle,160,2013-05-22 15:35:00
9:55 AM,48.2,46.4,93,29.93,10.0,South,9.2,-,0.05,,Overcast,170,2013-05-22 15:55:00
10:15 AM,48.2,46.4,93,29.93,4.0,SSE,8.1,-,0.01,Rain,Light Rain,160,2013-05-22 16:15:00
10:35 AM,50.0,48.2,94,29.92,7.0,South,8.1,-,0.01,,Light Drizzle,180,2013-05-22 16:35:00
10:55 AM,50.0,48.2,94,29.93,10.0,SSW,10.4,-,0.01,,Overcast,200,2013-05-22 16:55:00
11:15 AM,50.0,48.2,94,29.93,10.0,South,9.2,-,N/A,,Overcast,170,2013-05-22 17:15:00
11:35 AM,51.8,48.2,88,29.93,10.0,South,5.8,-,N/A,,Overcast,170,2013-05-22 17:35:00
11:55 AM,51.8,48.2,88,29.92,10.0,South,5.8,-,N/A,,Overcast,180,2013-05-22 17:55:00
12:15 PM,53.6,48.2,82,29.93,10.0,SSW,8.1,-,N/A,,Overcast,200,2013-05-22 18:15:00
12:35 PM,53.6,48.2,82,29.93,10.0,SSW,9.2,-,N/A,,Overcast,200,2013-05-22 18:35:00
12:55 PM,51.8,48.2,88,29.93,10.0,SSW,9.2,-,N/A,Rain,Light Rain,200,2013-05-22 18:55:00
1:15 PM,53.6,48.2,82,29.93,10.0,SSW,9.2,-,N/A,,Overcast,200,2013-05-22 19:15:00
1:35 PM,51.8,48.2,88,29.93,10.0,SSW,8.1,-,N/A,Rain,Light Rain,200,2013-05-22 19:35:00
1:55 PM,51.8,48.2,88,29.93,7.0,SSW,5.8,-,N/A,Rain,Light Rain,200,2013-05-22 19:55:00
2:15 PM,53.6,48.2,82,29.93,10.0,South,5.8,-,N/A,,Overcast,180,2013-05-22 20:15:00
2:35 PM,53.6,48.2,82,29.93,10.0,South,5.8,-,N/A,,Overcast,180,2013-05-22 20:35:00
2:55 PM,51.8,48.2,88,29.93,7.0,SW,6.9,-,0.01,Rain,Light Rain,220,2013-05-22 20:55:00
3:15 PM,53.6,48.2,82,29.93,10.0,SSW,5.8,-,N/A,,Overcast,210,2013-05-22 21:15:00
3:35 PM,53.6,48.2,82,29.93,10.0,WSW,5.8,-,N/A,Rain,Light Rain,240,2013-05-22 21:35:00
3:55 PM,51.8,48.2,88,29.94,7.0,WSW,5.8,-,0.05,Rain,Rain,250,2013-05-22 21:55:00
4:15 PM,51.8,48.2,88,29.94,5.0,SW,6.9,-,0.03,Rain,Rain,220,2013-05-22 22:15:00
4:35 PM,51.8,48.2,88,29.94,10.0,SSW,4.6,-,0.04,Rain,Light Rain,210,2013-05-22 22:35:00
4:55 PM,51.8,48.2,88,29.94,10.0,SSW,4.6,-,0.05,Rain,Light Rain,200,2013-05-22 22:55:00
5:15 PM,51.8,48.2,88,29.94,7.0,SSW,3.5,-,0.02,Rain,Rain,200,2013-05-22 23:15:00
5:35 PM,51.8,48.2,88,29.94,3.0,South,3.5,-,0.09,Rain,Rain,180,2013-05-22 23:35:00
5:55 PM,51.8,48.2,88,29.94,5.0,SW,4.6,-,0.12,Rain,Light Rain,220,2013-05-22 23:55:00
6:15 PM,51.8,48.2,88,29.94,3.0,WSW,9.2,-,0.05,Rain,Light Rain,240,2013-05-23 00:15:00
6:35 PM,51.8,50.0,94,29.94,5.0,SW,9.2,-,0.06,Rain,Light Rain,230,2013-05-23 00:35:00
6:55 PM,51.8,48.2,88,29.94,4.0,SW,10.4,-,0.06,Rain,Light Rain,230,2013-05-23 00:55:00
7:15 PM,50.0,48.2,94,29.94,7.0,WSW,9.2,-,0.01,Rain,Light Rain,240,2013-05-23 01:15:00
7:35 PM,50.0,48.2,94,29.94,3.0,SW,12.7,18.4,0.10,Rain,Heavy Rain,230,2013-05-23 01:35:00
7:55 PM,51.8,48.2,88,29.94,7.0,SW,6.9,-,0.11,Rain,Light Rain,220,2013-05-23 01:55:00
8:15 PM,51.8,48.2,88,29.94,5.0,SW,10.4,16.1,N/A,Rain,Light Rain,230,2013-05-23 02:15:00
8:35 PM,51.8,48.2,88,29.94,7.0,SW,16.1,21.9,0.01,Rain,Light Rain,230,2013-05-23 02:35:00
8:55 PM,50.0,48.2,94,29.94,4.0,SW,12.7,18.4,0.04,Rain,Light Rain,220,2013-05-23 02:55:00
9:15 PM,50.0,48.2,94,29.94,4.0,SSW,11.5,-,0.07,Rain,Rain,210,2013-05-23 03:15:00
9:35 PM,50.0,48.2,94,29.93,4.0,SSW,9.2,-,0.13,Rain,Rain,210,2013-05-23 03:35:00
9:55 PM,50.0,48.2,94,29.94,5.0,SW,11.5,-,0.22,Rain,Rain,220,2013-05-23 03:55:00
10:15 PM,50.0,48.2,94,29.94,7.0,SW,9.2,-,0.01,Rain,Light Rain,220,2013-05-23 04:15:00
10:35 PM,50.0,48.2,94,29.94,5.0,SW,8.1,-,0.06,Rain,Rain,230,2013-05-23 04:35:00
10:55 PM,50.0,48.2,94,29.94,5.0,South,10.4,16.1,0.13,Rain,Heavy Rain,190,2013-05-23 04:55:00
11:15 PM,50.0,48.2,94,29.94,4.0,SW,10.4,-,0.13,Rain,Rain,230,2013-05-23 05:15:00
11:35 PM,50.0,48.2,94,29.94,2.5,SW,8.1,-,0.26,Rain,Rain,230,2013-05-23 05:35:00
11:55 PM,50.0,50.0,100,29.94,4.0,SW,10.4,-,0.34,Rain,Light Rain,220,2013-05-23 05:55:00